createdAt,value
2024-03-20T00:00:14.257Z,71.76
2024-03-20T00:05:19.704Z,71.84
2024-03-20T00:10:25.002Z,71.67
2024-03-20T00:15:27.033Z,71.33
2024-03-20T00:20:29.947Z,71.46
2024-03-20T00:25:30.184Z,71.68
2024-03-20T00:30:29.200Z,71.74
2024-03-20T00:35:37.337Z,71.70
2024-03-20T00:40:56.637Z,72.00
2024-03-20T00:46:00.141Z,71.59
2024-03-20T00:51:28.139Z,71.84
2024-03-20T00:56:40.531Z,72.07
2024-03-20T01:01:53.883Z,72.21
2024-03-20T01:06:58.702Z,72.13
2024-03-20T01:11:57.195Z,72.53
2024-03-20T01:16:55.510Z,72.46
2024-03-20T01:21:54.413Z,71.79
2024-03-20T01:26:52.394Z,71.76
2024-03-20T01:31:53.123Z,72.11
2024-03-20T01:36:53.213Z,71.42
2024-03-20T01:41:52.699Z,71.33
2024-03-20T01:46:51.085Z,71.86
2024-03-20T01:51:53.672Z,71.50
2024-03-20T01:57:02.468Z,71.05
2024-03-20T02:02:02.833Z,70.82
2024-03-20T02:07:01.543Z,70.73
2024-03-20T02:12:17.148Z,71.08
2024-03-20T02:17:21.483Z,71.07
2024-03-20T02:22:21.159Z,70.85
2024-03-20T02:27:25.740Z,70.82
2024-03-20T02:32:24.019Z,70.66
2024-03-20T02:37:22.492Z,70.19
2024-03-20T02:42:24.359Z,70.57
2024-03-20T02:47:29.721Z,70.26
2024-03-20T02:52:29.462Z,70.29
2024-03-20T02:57:33.247Z,70.44
2024-03-20T03:02:32.001Z,70.45
2024-03-20T03:07:36.435Z,70.15
2024-03-20T03:18:00.626Z,70.31
2024-03-20T03:23:07.112Z,70.35
2024-03-20T03:28:18.720Z,70.04
2024-03-20T03:33:17.310Z,70.30
2024-03-20T03:38:19.303Z,70.49
2024-03-20T03:43:17.582Z,70.09
2024-03-20T03:48:23.250Z,69.67
2024-03-20T03:53:22.560Z,69.66
2024-03-20T03:58:23.931Z,70.01
2024-03-20T04:03:41.944Z,69.77
2024-03-20T04:08:47.659Z,69.81
2024-03-20T04:13:48.158Z,69.22
2024-03-20T04:18:47.166Z,69.39
2024-03-20T04:23:57.574Z,69.49
2024-03-20T04:28:57.558Z,69.68
2024-03-20T04:33:56.167Z,69.25
2024-03-20T04:38:57.819Z,68.72
2024-03-20T04:44:06.181Z,68.83
2024-03-20T04:49:09.299Z,68.88
2024-03-20T04:54:11.776Z,68.93
2024-03-20T04:59:09.668Z,68.43
2024-03-20T05:04:07.530Z,68.69
2024-03-20T05:09:09.097Z,68.65
2024-03-20T05:14:08.537Z,67.73
2024-03-20T05:19:09.246Z,67.37
2024-03-20T05:24:17.446Z,67.34
2024-03-20T05:29:18.669Z,67.48
2024-03-20T05:34:24.141Z,67.48
2024-03-20T05:39:25.372Z,67.27
2024-03-20T05:44:26.886Z,65.50
2024-03-20T05:49:42.625Z,64.43
2024-03-20T05:54:44.104Z,62.75
2024-03-20T05:59:54.158Z,60.37
2024-03-20T06:04:55.168Z,59.15
2024-03-20T06:09:57.098Z,56.86
2024-03-20T06:15:21.725Z,55.74
2024-03-20T06:20:35.229Z,56.29
2024-03-20T06:25:35.667Z,56.47
2024-03-20T06:30:46.825Z,55.91
2024-03-20T06:35:51.366Z,54.89
2024-03-20T06:40:50.267Z,54.22
2024-03-20T06:45:59.296Z,53.00
2024-03-20T06:51:01.190Z,51.67
2024-03-20T06:56:03.025Z,49.15
2024-03-20T07:01:07.128Z,47.89
2024-03-20T07:06:15.358Z,43.52
2024-03-20T07:11:58.907Z,41.43
2024-03-20T07:23:12.336Z,38.21
2024-03-20T07:28:13.711Z,36.79
2024-03-20T07:33:19.985Z,35.99
2024-03-20T07:38:21.788Z,35.28
2024-03-20T07:43:28.519Z,35.23
2024-03-20T07:48:27.538Z,32.40
2024-03-20T07:53:25.441Z,32.16
2024-03-20T07:58:23.206Z,31.02
2024-03-20T08:03:22.212Z,29.79
2024-03-20T08:08:20.542Z,27.84
2024-03-20T08:13:18.191Z,26.69
2024-03-20T08:18:17.742Z,25.67
2024-03-20T08:23:17.880Z,24.08
2024-03-20T08:28:15.906Z,24.46
2024-03-20T08:33:13.125Z,24.89
2024-03-20T11:23:44.488Z,30.66
2024-03-20T11:28:50.727Z,31.39
2024-03-20T11:34:07.618Z,31.26
2024-03-20T11:39:11.527Z,31.34
2024-03-20T11:49:42.813Z,32.05
2024-03-20T11:54:46.232Z,31.11
2024-03-20T11:59:49.113Z,32.06
2024-03-20T12:04:49.503Z,32.05
2024-03-20T12:09:47.940Z,32.01
2024-03-20T12:14:46.599Z,30.80
2024-03-20T12:19:44.386Z,31.04
2024-03-20T12:24:41.964Z,31.08
2024-03-20T12:29:39.995Z,31.24
2024-03-20T12:34:39.517Z,30.57
2024-03-20T12:39:37.219Z,31.60
2024-03-20T12:44:36.581Z,30.70
2024-03-20T12:49:34.756Z,30.50
2024-03-20T12:54:32.239Z,30.15
2024-03-20T12:59:29.892Z,31.22
2024-03-20T13:04:27.051Z,31.06
2024-03-20T13:09:25.246Z,30.76
2024-03-20T13:14:23.288Z,30.93
2024-03-20T13:19:23.629Z,30.72
2024-03-20T13:24:20.919Z,31.04
2024-03-20T13:29:27.821Z,31.08
2024-03-20T13:34:26.703Z,29.13
2024-03-20T13:39:34.538Z,30.64
2024-03-20T13:44:34.140Z,30.96
2024-03-20T13:49:31.426Z,30.87
2024-03-20T13:54:31.967Z,30.88
2024-03-20T13:59:30.651Z,31.10
2024-03-20T14:04:28.849Z,31.36
2024-03-20T14:09:26.770Z,31.78
2024-03-20T14:14:26.263Z,31.80
2024-03-20T14:19:23.467Z,31.62
2024-03-20T14:24:22.788Z,31.80
2024-03-20T14:29:20.060Z,31.86
2024-03-20T14:34:20.914Z,32.17
2024-03-20T14:39:17.987Z,32.13
2024-03-20T14:44:16.232Z,31.33
2024-03-20T14:49:15.619Z,32.23
2024-03-20T14:54:15.246Z,32.54
2024-03-20T14:59:12.857Z,32.71
2024-03-20T15:04:11.662Z,32.48
2024-03-20T15:09:11.594Z,32.79
2024-03-20T15:14:09.577Z,32.74
2024-03-20T15:19:06.859Z,33.01
2024-03-20T15:24:07.098Z,33.26
2024-03-20T15:29:05.430Z,33.47
2024-03-20T15:34:07.294Z,33.44
2024-03-20T15:39:22.133Z,33.51
2024-03-20T15:44:19.455Z,33.78
2024-03-20T15:49:18.728Z,33.87
2024-03-20T15:54:20.217Z,34.07
2024-03-20T15:59:18.018Z,34.26
2024-03-20T16:04:15.283Z,34.49
2024-03-20T16:09:22.212Z,34.26
2024-03-20T16:14:21.384Z,34.68
2024-03-20T16:19:19.868Z,34.73
2024-03-20T16:24:17.183Z,35.08
2024-03-20T16:29:16.862Z,35.00
2024-03-20T16:34:14.934Z,35.27
2024-03-20T16:39:12.419Z,35.82
2024-03-20T16:44:09.773Z,36.11
2024-03-20T16:49:10.422Z,36.37
2024-03-20T16:54:08.661Z,36.54
2024-03-20T16:59:07.515Z,37.06
2024-03-20T17:04:05.230Z,37.04
2024-03-20T17:09:05.401Z,37.60
2024-03-20T17:14:03.875Z,38.00
2024-03-20T17:19:01.122Z,38.44
2024-03-20T17:24:08.650Z,38.50
2024-03-20T17:29:12.319Z,38.63
2024-03-20T17:34:09.645Z,39.19
2024-03-20T17:39:07.730Z,39.51
2024-03-20T17:44:05.113Z,39.66
2024-03-20T17:49:03.611Z,39.98
2024-03-20T17:54:01.825Z,40.51
2024-03-20T17:58:59.133Z,40.54
2024-03-20T18:03:57.133Z,40.93
2024-03-20T18:08:55.165Z,40.94
2024-03-20T18:13:52.582Z,41.20
2024-03-20T18:18:49.853Z,41.38
2024-03-20T18:23:47.646Z,41.20
2024-03-20T18:28:45.717Z,41.67
2024-03-20T18:33:43.375Z,41.85
2024-03-20T18:38:40.776Z,41.60
2024-03-20T18:43:45.510Z,42.07
2024-03-20T18:48:43.570Z,42.48
2024-03-20T18:53:43.811Z,42.47
2024-03-20T18:58:43.459Z,42.89
2024-03-20T19:03:41.064Z,42.82
2024-03-20T19:08:44.030Z,42.99
2024-03-20T19:13:54.436Z,42.99
2024-03-20T19:19:18.432Z,42.99
2024-03-20T19:24:26.229Z,43.19
2024-03-20T19:29:53.611Z,43.49
2024-03-20T19:34:54.377Z,43.51
2024-03-20T19:40:24.092Z,43.83
2024-03-20T19:51:21.918Z,44.28
2024-03-20T19:56:38.099Z,44.35
2024-03-20T20:01:55.011Z,43.76
2024-03-20T20:06:56.788Z,43.23
2024-03-20T20:12:14.209Z,43.03
2024-03-20T20:17:40.179Z,43.02
2024-03-20T20:22:51.456Z,42.78
2024-03-20T20:28:16.129Z,42.93
2024-03-20T20:33:23.114Z,43.17
2024-03-20T20:39:24.216Z,43.60
2024-03-20T20:44:47.692Z,43.80
2024-03-20T20:50:07.280Z,43.60
2024-03-20T20:55:40.576Z,43.77
2024-03-20T21:01:27.627Z,43.35
2024-03-20T21:07:10.097Z,42.97
2024-03-20T21:18:25.872Z,42.26
2024-03-20T21:24:16.175Z,42.44
2024-03-20T21:34:58.948Z,41.78
2024-03-20T21:40:43.924Z,42.14
2024-03-20T21:46:09.209Z,42.05
2024-03-20T21:51:27.004Z,41.98
2024-03-20T21:56:41.836Z,42.12
2024-03-20T22:01:47.538Z,42.30
2024-03-20T22:06:54.572Z,41.88
2024-03-20T22:11:56.923Z,42.14
2024-03-20T22:17:09.013Z,41.70
2024-03-20T22:22:27.482Z,41.86
2024-03-20T22:33:18.039Z,41.70
2024-03-20T22:38:37.304Z,41.85
2024-03-20T22:43:40.028Z,41.78
2024-03-20T22:48:56.413Z,41.90
2024-03-20T22:54:18.224Z,41.77
2024-03-20T22:59:31.101Z,42.16
2024-03-20T23:05:04.819Z,41.87
2024-03-20T23:10:35.051Z,41.81
2024-03-20T23:15:49.869Z,41.57
2024-03-20T23:20:49.943Z,42.16
2024-03-20T23:25:50.652Z,42.26
2024-03-20T23:31:04.660Z,42.56
2024-03-20T23:36:19.552Z,45.41
2024-03-20T23:41:18.842Z,48.67
2024-03-20T23:46:23.238Z,50.55
2024-03-20T23:51:22.698Z,51.72
2024-03-20T23:56:38.653Z,52.09
